Time;durP1;ratioP1;P1;durP2;ratioP2;P2;SDS_P1;SDS_P2;PMS_P1;PMS_P2;Temp;Humidity;BMP_temperature;BMP_pressure;BME280_temperature;BME280_humidity;BME280_pressure;Samples;Min_cycle;Max_cycle;Signal;HPM_P1;HPM_P2
2021/03/06 00:02:32;;;;;;;5.23;3.27;;;;;;;;;;5045463;28;20033;-56
2021/03/06 00:05:37;;;;;;;2.97;2.30;;;;;;;;;;5003069;28;20083;-57
2021/03/06 00:08:24;;;;;;;2.90;2.20;;;;;;;;;;5007447;28;20034;-57
2021/03/06 00:14:06;;;;;;;;;;;;;;;;;;;;;
2021/03/06 00:16:55;;;;;;;;;;;;;;;;;;;;;
2021/03/06 00:22:45;;;;;;;5.17;3.03;;;;;;;;;;5045680;28;20084;-58
2021/03/06 00:25:44;;;;;;;2.87;2.13;;;;;;;;;;4929725;29;20068;-56
2021/03/06 00:28:28;;;;;;;3.23;2.20;;;;;;;;;;4992655;28;20503;-57
2021/03/06 00:31:08;;;;;;;;;;;;;;;;;;;;;
2021/03/06 00:34:03;;;;;;;4.90;2.80;;;;;;;;;;5001809;28;20125;-56
2021/03/06 00:40:13;;;;;;;3.37;2.63;;;;;;;;;;5000733;28;20061;-56
2021/03/06 00:42:46;;;;;;;3.70;1.90;;;;;;;;;;5003105;28;20035;-57
2021/03/06 00:45:19;;;;;;;3.43;2.40;;;;;;;;;;5002619;28;20081;-57
2021/03/06 00:47:54;;;;;;;4.17;3.00;;;;;;;;;;5003311;28;20490;-56
2021/03/06 00:50:57;;;;;;;6.37;2.93;;;;;;;;;;5003066;28;20042;-56
2021/03/06 00:53:47;;;;;;;3.87;2.63;;;;;;;;;;5002523;28;20042;-57
2021/03/06 00:56:14;;;;;;;4.93;2.80;;;;;;;;;;4974079;28;20054;-56
2021/03/06 00:58:56;;;;;;;7.60;3.20;;;;;;;;;;4967667;28;20080;-57
2021/03/06 01:05:05;;;;;;;5.40;3.40;;;;;;;;;;5011550;28;20038;-53
2021/03/06 01:08:11;;;;;;;4.37;3.10;;;;;;;;;;5023130;28;20480;-57
2021/03/06 01:11:12;;;;;;;8.87;2.97;;;;;;;;;;5024667;28;20396;-57
2021/03/06 01:17:07;;;;;;;4.80;3.00;;;;;;;;;;5024478;28;20061;-57
2021/03/06 01:22:40;;;;;;;4.67;2.73;;;;;;;;;;5024407;28;20037;-58
2021/03/06 01:25:27;;;;;;;;;;;;;;;;;;;;;
2021/03/06 01:28:22;;;;;;;4.77;3.43;;;;;;;;;;5024516;28;20085;-56
2021/03/06 01:31:04;;;;;;;3.70;2.80;;;;;;;;;;5007282;28;20026;-56
2021/03/06 01:36:43;;;;;;;3.17;1.67;;;;;;;;;;5021242;28;20022;-57
2021/03/06 01:39:45;;;;;;;;;;;;;;;;;;;;;
2021/03/06 01:42:25;;;;;;;3.90;2.40;;;;;;;;;;5020576;28;20089;-56
2021/03/06 01:45:17;;;;;;;5.15;2.40;;;;;;;;;;5023940;28;20037;-57
2021/03/06 01:50:50;;;;;;;4.73;2.43;;;;;;;;;;5019724;28;20030;-58
2021/03/06 01:56:53;;;;;;;4.13;2.77;;;;;;;;;;4940361;29;20478;-55
2021/03/06 01:59:34;;;;;;;3.37;2.77;;;;;;;;;;4938445;29;20039;-57
2021/03/06 02:02:13;;;;;;;3.90;2.80;;;;;;;;;;4943833;29;20043;-57
2021/03/06 02:05:09;;;;;;;3.93;2.63;;;;;;;;;;4943605;29;20569;-58
2021/03/06 02:11:12;;;;;;;;;;;;;;;;;;;;;
2021/03/06 02:13:56;;;;;;;3.73;2.80;;;;;;;;;;4981609;28;20102;-58
2021/03/06 02:16:50;;;;;;;3.23;2.43;;;;;;;;;;4982492;28;20023;-57
2021/03/06 02:22:38;;;;;;;3.15;1.70;;;;;;;;;;4982420;28;20108;-58
2021/03/06 02:25:33;;;;;;;4.60;2.80;;;;;;;;;;4983058;28;20066;-56
2021/03/06 02:28:20;;;;;;;4.70;2.97;;;;;;;;;;4983137;28;20045;-54
2021/03/06 02:31:05;;;;;;;4.57;2.73;;;;;;;;;;5015010;28;20038;-57
2021/03/06 02:33:58;;;;;;;3.03;2.20;;;;;;;;;;5042609;28;20030;-58
2021/03/06 02:36:43;;;;;;;4.43;2.10;;;;;;;;;;5043350;28;20021;-56
2021/03/06 02:39:39;;;;;;;4.00;2.47;;;;;;;;;;5042550;28;20045;-58
2021/03/06 02:42:48;;;;;;;5.13;3.00;;;;;;;;;;5024277;28;20053;-58
2021/03/06 02:45:47;;;;;;;3.63;2.50;;;;;;;;;;4944523;28;20494;-57
2021/03/06 02:48:19;;;;;;;3.77;2.50;;;;;;;;;;4958233;28;20041;-56
2021/03/06 02:54:14;;;;;;;7.50;3.23;;;;;;;;;;5038581;28;20487;-54
2021/03/06 02:56:41;;;;;;;3.10;2.60;;;;;;;;;;5042192;28;20072;-53
2021/03/06 02:59:45;;;;;;;3.07;2.40;;;;;;;;;;5025611;28;20033;-57
2021/03/06 03:02:48;;;;;;;7.30;2.80;;;;;;;;;;5025817;28;20033;-58
2021/03/06 03:05:38;;;;;;;3.03;2.30;;;;;;;;;;5043540;28;20047;-56
2021/03/06 03:08:35;;;;;;;4.53;2.38;;;;;;;;;;5042905;28;20025;-57
2021/03/06 03:14:19;;;;;;;4.53;2.50;;;;;;;;;;4981390;28;20035;-56
2021/03/06 03:17:06;;;;;;;3.53;2.37;;;;;;;;;;4965030;28;20034;-58
2021/03/06 03:23:17;;;;;;;6.57;3.30;;;;;;;;;;5015828;28;20080;-59
2021/03/06 03:26:06;;;;;;;3.73;2.73;;;;;;;;;;5043100;28;20029;-57
2021/03/06 03:29:10;;;;;;;4.33;2.87;;;;;;;;;;5025100;28;20041;-58
2021/03/06 03:35:15;;;;;;;;;;;;;;;;;;;;;
2021/03/06 03:37:52;;;;;;;5.00;2.30;;;;;;;;;;4940369;29;20095;-58
2021/03/06 03:40:23;;;;;;;3.27;2.67;;;;;;;;;;4943562;29;20035;-58
2021/03/06 03:43:00;;;;;;;4.88;2.63;;;;;;;;;;4943172;29;20038;-57
2021/03/06 03:46:03;;;;;;;2.30;1.70;;;;;;;;;;4982328;28;20029;-55
2021/03/06 03:49:03;;;;;;;5.17;2.40;;;;;;;;;;5041865;28;20089;-58
2021/03/06 03:57:20;;;;;;;4.37;2.90;;;;;;;;;;5030365;28;20407;-54
2021/03/06 04:03:15;;;;;;;2.73;1.80;;;;;;;;;;5041855;28;20039;-58
2021/03/06 04:05:44;;;;;;;4.63;2.37;;;;;;;;;;5041758;28;20034;-56
2021/03/06 04:08:52;;;;;;;3.30;2.17;;;;;;;;;;5024822;28;20057;-57
2021/03/06 04:11:22;;;;;;;3.47;2.90;;;;;;;;;;5042380;28;20100;-58
2021/03/06 04:14:08;;;;;;;3.80;2.97;;;;;;;;;;5041805;28;20093;-57
2021/03/06 04:16:41;;;;;;;5.00;3.03;;;;;;;;;;5042571;28;20375;-57
2021/03/06 04:19:16;;;;;;;5.53;2.77;;;;;;;;;;5023964;28;20033;-58
2021/03/06 04:25:17;;;;;;;5.20;3.27;;;;;;;;;;4980851;28;20062;-59
2021/03/06 04:28:34;;;;;;;;;;;;;;;;;;;;;
2021/03/06 04:37:18;;;;;;;3.67;3.17;;;;;;;;;;5037481;28;20554;-56
2021/03/06 04:40:03;;;;;;;3.20;2.13;;;;;;;;;;5037584;28;20124;-57
2021/03/06 04:45:51;;;;;;;2.80;1.93;;;;;;;;;;4976420;28;20038;-58
2021/03/06 04:49:02;;;;;;;7.97;3.17;;;;;;;;;;5037379;28;20037;-57
2021/03/06 04:51:53;;;;;;;3.55;2.72;;;;;;;;;;5005775;28;20503;-57
2021/03/06 04:54:41;;;;;;;2.77;2.37;;;;;;;;;;5036962;28;20029;-58
2021/03/06 04:57:38;;;;;;;4.13;2.30;;;;;;;;;;5036413;28;20049;-58
2021/03/06 05:03:30;;;;;;;3.33;2.63;;;;;;;;;;4929735;29;20043;-58
2021/03/06 05:06:06;;;;;;;4.50;2.57;;;;;;;;;;4936835;29;20127;-57
2021/03/06 05:08:39;;;;;;;3.30;2.03;;;;;;;;;;4936832;29;20028;-57
2021/03/06 05:11:26;;;;;;;3.17;2.77;;;;;;;;;;4936705;29;20035;-58
2021/03/06 05:13:58;;;;;;;6.60;2.47;;;;;;;;;;4936306;29;20035;-58
2021/03/06 05:16:36;;;;;;;5.00;3.00;;;;;;;;;;4936413;29;20106;-58
2021/03/06 05:19:16;;;;;;;3.80;2.40;;;;;;;;;;4937321;29;20591;-57
2021/03/06 05:21:54;;;;;;;4.50;3.13;;;;;;;;;;4937186;29;20474;-57
2021/03/06 05:24:47;;;;;;;3.67;2.20;;;;;;;;;;4993401;28;20387;-58
2021/03/06 05:27:19;;;;;;;9.37;3.17;;;;;;;;;;5036103;28;20435;-57
2021/03/06 05:29:58;;;;;;;2.27;1.70;;;;;;;;;;5035667;28;20053;-57
2021/03/06 05:32:56;;;;;;;2.67;2.03;;;;;;;;;;5043195;28;20033;-58
2021/03/06 05:35:35;;;;;;;3.67;2.93;;;;;;;;;;5044659;28;20029;-57
2021/03/06 05:38:20;;;;;;;5.53;3.53;;;;;;;;;;5044943;28;20383;-56
2021/03/06 05:47:08;;;;;;;2.20;1.37;;;;;;;;;;4940406;29;20125;-57
2021/03/06 05:58:33;;;;;;;4.27;3.37;;;;;;;;;;4993084;28;20483;-56
2021/03/06 06:01:16;;;;;;;2.50;1.73;;;;;;;;;;5044148;28;20033;-54
2021/03/06 06:04:08;;;;;;;3.93;2.43;;;;;;;;;;5044757;28;20029;-55
2021/03/06 06:09:42;;;;;;;3.10;2.53;;;;;;;;;;5033987;28;20112;-54
2021/03/06 06:12:40;;;;;;;8.53;3.33;;;;;;;;;;5045020;28;20463;-57
2021/03/06 06:15:07;;;;;;;3.37;2.43;;;;;;;;;;5044883;28;20351;-57
2021/03/06 06:18:08;;;;;;;6.07;3.37;;;;;;;;;;5043956;28;20048;-55
2021/03/06 06:20:43;;;;;;;2.80;2.30;;;;;;;;;;5044302;28;20029;-55
2021/03/06 06:26:16;;;;;;;4.50;2.97;;;;;;;;;;4970178;28;20043;-58
2021/03/06 06:29:07;;;;;;;2.90;2.10;;;;;;;;;;5041252;28;20033;-57
2021/03/06 06:31:52;;;;;;;4.87;2.50;;;;;;;;;;5043945;28;20044;-57
2021/03/06 06:34:22;;;;;;;3.97;2.93;;;;;;;;;;5001893;28;20043;-55
2021/03/06 06:37:03;;;;;;;3.23;2.10;;;;;;;;;;4999709;28;20034;-55
2021/03/06 06:39:47;;;;;;;5.07;2.90;;;;;;;;;;4984248;28;20129;-57
2021/03/06 06:42:27;;;;;;;;;;;;;;;;;;;;;
2021/03/06 06:45:12;;;;;;;4.73;3.43;;;;;;;;;;4967774;28;20110;-55
2021/03/06 06:48:01;;;;;;;4.10;2.83;;;;;;;;;;5003044;28;20036;-55
2021/03/06 06:53:40;;;;;;;4.03;3.00;;;;;;;;;;5002492;28;20042;-57
2021/03/06 06:56:29;;;;;;;5.10;3.33;;;;;;;;;;5001919;28;20045;-57
2021/03/06 06:59:29;;;;;;;3.33;2.70;;;;;;;;;;5002736;28;20069;-54
2021/03/06 07:02:25;;;;;;;4.13;2.80;;;;;;;;;;4985573;28;20045;-55
2021/03/06 07:05:22;;;;;;;3.43;2.50;;;;;;;;;;4998084;28;20045;-57
2021/03/06 07:07:59;;;;;;;5.30;3.00;;;;;;;;;;5043288;28;20034;-57
2021/03/06 07:10:32;;;;;;;6.03;3.90;;;;;;;;;;5025355;28;20021;-57
2021/03/06 07:13:25;;;;;;;;;;;;;;;;;;;;;
2021/03/06 07:16:40;;;;;;;4.00;3.07;;;;;;;;;;5043741;28;20081;-54
2021/03/06 07:19:32;;;;;;;4.07;2.87;;;;;;;;;;5041042;28;20036;-57
2021/03/06 07:22:14;;;;;;;4.20;2.53;;;;;;;;;;5025719;28;20034;-57
2021/03/06 07:24:48;;;;;;;4.27;3.50;;;;;;;;;;5042889;28;20025;-57
2021/03/06 07:27:38;;;;;;;5.37;3.87;;;;;;;;;;5043250;28;20037;-57
2021/03/06 07:30:09;;;;;;;3.80;3.03;;;;;;;;;;5043413;28;20045;-54
2021/03/06 07:35:42;;;;;;;3.50;2.93;;;;;;;;;;5042713;28;19912;-55
2021/03/06 07:38:16;;;;;;;5.50;3.88;;;;;;;;;;5025250;28;20128;-56
2021/03/06 07:47:00;;;;;;;4.50;3.27;;;;;;;;;;4905228;29;20041;-54
2021/03/06 07:53:14;;;;;;;2.67;1.97;;;;;;;;;;4942936;29;20035;-55
2021/03/06 07:55:50;;;;;;;5.23;3.80;;;;;;;;;;4943024;29;20038;-56
2021/03/06 07:58:32;;;;;;;4.80;3.53;;;;;;;;;;4943196;29;20068;-58
2021/03/06 08:01:08;;;;;;;7.73;3.80;;;;;;;;;;4943174;29;20067;-55
2021/03/06 08:07:09;;;;;;;7.03;4.87;;;;;;;;;;4985118;28;20059;-57
2021/03/06 08:09:56;;;;;;;4.40;3.40;;;;;;;;;;4985022;28;20392;-58
2021/03/06 08:15:45;;;;;;;7.67;4.37;;;;;;;;;;4926644;29;20043;-56
2021/03/06 08:21:18;;;;;;;4.37;3.43;;;;;;;;;;5040551;28;19905;-52
2021/03/06 08:23:56;;;;;;;7.43;3.90;;;;;;;;;;5023966;28;20030;-56
2021/03/06 08:26:51;;;;;;;6.40;3.30;;;;;;;;;;5026761;28;20029;-56
2021/03/06 08:29:38;;;;;;;4.43;3.00;;;;;;;;;;5041843;28;20040;-54
2021/03/06 08:32:27;;;;;;;7.47;4.20;;;;;;;;;;5017821;28;20574;-54
2021/03/06 08:35:33;;;;;;;3.57;2.87;;;;;;;;;;5032931;28;20036;-54
2021/03/06 08:41:37;;;;;;;4.73;4.27;;;;;;;;;;5036982;28;20104;-57
2021/03/06 08:44:26;;;;;;;4.60;3.60;;;;;;;;;;5035728;28;20040;-53
2021/03/06 08:47:11;;;;;;;5.23;3.80;;;;;;;;;;5038029;28;20061;-57
2021/03/06 08:49:47;;;;;;;3.63;2.37;;;;;;;;;;5036585;28;20471;-56
2021/03/06 08:52:19;;;;;;;6.83;3.83;;;;;;;;;;5018618;28;20037;-57
2021/03/06 08:55:10;;;;;;;5.30;3.73;;;;;;;;;;5036698;28;20033;-57
2021/03/06 08:57:39;;;;;;;6.70;3.60;;;;;;;;;;5021461;28;20052;-55
2021/03/06 09:00:35;;;;;;;;;;;;;;;;;;;;;
2021/03/06 09:03:59;;;;;;;4.43;3.13;;;;;;;;;;5036574;28;20112;-56
2021/03/06 09:06:51;;;;;;;;;;;;;;;;;;;;;
2021/03/06 09:09:36;;;;;;;5.97;3.60;;;;;;;;;;5036413;28;20416;-56
2021/03/06 09:12:17;;;;;;;4.93;3.13;;;;;;;;;;5037362;28;20029;-57
2021/03/06 09:15:02;;;;;;;3.65;2.30;;;;;;;;;;5035612;28;20085;-57
2021/03/06 09:17:54;;;;;;;5.17;2.87;;;;;;;;;;5014418;28;20559;-56
2021/03/06 09:20:41;;;;;;;5.10;3.20;;;;;;;;;;4998152;28;20101;-57
2021/03/06 09:23:32;;;;;;;4.73;2.83;;;;;;;;;;5014457;28;20029;-54
2021/03/06 09:29:08;;;;;;;3.93;2.70;;;;;;;;;;5014546;28;20133;-54
2021/03/06 09:34:59;;;;;;;11.57;4.10;;;;;;;;;;5011507;28;20081;-55
2021/03/06 09:37:47;;;;;;;6.27;3.47;;;;;;;;;;4995122;28;20555;-57
2021/03/06 09:40:35;;;;;;;3.23;2.33;;;;;;;;;;4995040;28;20073;-53
2021/03/06 09:43:10;;;;;;;5.33;3.20;;;;;;;;;;4995022;28;20030;-57
2021/03/06 09:46:07;;;;;;;5.03;3.47;;;;;;;;;;4995050;28;20035;-56
2021/03/06 09:51:46;;;;;;;4.57;3.13;;;;;;;;;;4991952;28;20050;-57
2021/03/06 09:54:22;;;;;;;6.47;3.53;;;;;;;;;;4987351;28;20034;-56
2021/03/06 10:00:07;;;;;;;4.23;3.13;;;;;;;;;;4992551;28;20042;-57
2021/03/06 10:06:24;;;;;;;;;;;;;;;;;;;;;
2021/03/06 10:09:29;;;;;;;7.10;3.97;;;;;;;;;;4970408;28;20035;-53
2021/03/06 10:12:27;;;;;;;4.63;2.90;;;;;;;;;;4953967;29;20027;-53
2021/03/06 10:15:33;;;;;;;5.90;3.00;;;;;;;;;;4955256;29;20490;-55
2021/03/06 10:18:18;;;;;;;5.03;3.10;;;;;;;;;;4915235;29;20092;-56
2021/03/06 10:21:12;;;;;;;4.83;3.07;;;;;;;;;;4916639;29;20039;-53
2021/03/06 10:23:49;;;;;;;2.80;1.77;;;;;;;;;;4902861;29;20059;-57
2021/03/06 10:26:44;;;;;;;3.53;2.63;;;;;;;;;;4916064;29;20036;-54
2021/03/06 10:32:37;;;;;;;4.70;2.83;;;;;;;;;;4992876;28;20030;-57
2021/03/06 10:35:43;;;;;;;5.03;3.37;;;;;;;;;;4990760;28;20038;-54
2021/03/06 10:38:41;;;;;;;4.57;2.30;;;;;;;;;;4992782;28;20073;-57
2021/03/06 10:41:46;;;;;;;4.17;3.50;;;;;;;;;;4996434;28;20026;-56
2021/03/06 10:44:41;;;;;;;;;;;;;;;;;;;;;
2021/03/06 10:47:27;;;;;;;4.53;3.93;;;;;;;;;;4987612;28;20045;-54
2021/03/06 10:50:20;;;;;;;5.87;3.43;;;;;;;;;;5019958;28;20061;-57
2021/03/06 10:53:02;;;;;;;5.87;3.53;;;;;;;;;;5015804;28;20467;-55
2021/03/06 10:55:50;;;;;;;4.20;2.90;;;;;;;;;;5034611;28;20108;-57
2021/03/06 10:58:21;;;;;;;3.93;3.37;;;;;;;;;;4998216;28;20053;-57
2021/03/06 11:01:36;;;;;;;;;;;;;;;;;;;;;
2021/03/06 11:04:01;;;;;;;3.63;2.90;;;;;;;;;;5011651;28;20060;-57
2021/03/06 11:06:41;;;;;;;6.53;3.23;;;;;;;;;;4995957;28;20040;-56
2021/03/06 11:09:47;;;;;;;4.88;3.13;;;;;;;;;;5014508;28;20028;-56
2021/03/06 11:12:32;;;;;;;4.20;2.70;;;;;;;;;;5002907;28;20138;-54
2021/03/06 11:15:40;;;;;;;3.87;3.20;;;;;;;;;;5014425;28;20084;-57
2021/03/06 11:18:32;;;;;;;6.10;3.10;;;;;;;;;;4918643;29;20036;-55
2021/03/06 11:21:24;;;;;;;3.73;2.77;;;;;;;;;;4934203;29;20032;-57
2021/03/06 11:23:58;;;;;;;5.37;2.50;;;;;;;;;;5002851;28;20092;-56
2021/03/06 11:30:01;;;;;;;7.30;2.70;;;;;;;;;;5005987;28;20080;-56
2021/03/06 11:32:11;;;;;;;4.40;2.90;;;;;;;;;;4998239;28;20088;-57
2021/03/06 11:34:48;;;;;;;6.13;2.80;;;;;;;;;;5013951;28;20464;-56
2021/03/06 11:37:21;;;;;;;4.50;2.50;;;;;;;;;;5015444;28;20116;-57
2021/03/06 11:39:53;;;;;;;4.80;2.53;;;;;;;;;;5000512;28;20041;-55
2021/03/06 11:42:25;;;;;;;4.53;2.70;;;;;;;;;;5018304;28;20498;-57
2021/03/06 11:45:06;;;;;;;4.33;2.30;;;;;;;;;;4999341;28;20433;-55
2021/03/06 11:47:53;;;;;;;3.17;2.13;;;;;;;;;;5018782;28;20076;-56
2021/03/06 11:50:39;;;;;;;3.70;2.10;;;;;;;;;;5018578;28;20026;-56
2021/03/06 11:53:11;;;;;;;4.93;2.55;;;;;;;;;;5018288;28;20514;-56
2021/03/06 11:56:04;;;;;;;3.73;1.93;;;;;;;;;;4999587;28;20062;-56
2021/03/06 11:58:38;;;;;;;3.72;2.30;;;;;;;;;;5036360;28;20466;-57
2021/03/06 12:01:29;;;;;;;3.17;2.70;;;;;;;;;;5037669;28;20030;-57
2021/03/06 12:03:59;;;;;;;3.23;2.47;;;;;;;;;;5018866;28;20041;-56
2021/03/06 12:06:36;;;;;;;2.63;1.63;;;;;;;;;;5014353;28;20045;-56
2021/03/06 12:09:20;;;;;;;3.08;2.08;;;;;;;;;;5018247;28;20037;-55
2021/03/06 12:12:00;;;;;;;4.03;2.30;;;;;;;;;;5036733;28;20104;-55
2021/03/06 12:14:30;;;;;;;4.28;2.45;;;;;;;;;;5019424;28;20456;-56
2021/03/06 12:19:50;;;;;;;4.68;3.28;;;;;;;;;;5026259;28;20459;-57
2021/03/06 12:25:35;;;;;;;4.97;2.60;;;;;;;;;;5033656;28;20391;-56
2021/03/06 12:28:11;;;;;;;5.68;3.05;;;;;;;;;;5018941;28;20026;-57
2021/03/06 12:30:55;;;;;;;4.32;3.08;;;;;;;;;;5019315;28;20022;-56
2021/03/06 12:36:26;;;;;;;2.72;2.17;;;;;;;;;;5029166;28;20033;-57
2021/03/06 12:39:42;;;;;;;3.42;2.50;;;;;;;;;;5037325;28;20079;-56
2021/03/06 12:48:01;;;;;;;;;;;;;;;;;;;;;
2021/03/06 12:50:37;;;;;;;3.25;1.70;;;;;;;;;;5037202;28;20398;-57
2021/03/06 12:56:26;;;;;;;3.33;2.90;;;;;;;;;;5032111;28;20087;-57
2021/03/06 12:59:18;;;;;;;6.87;3.17;;;;;;;;;;5036452;28;20041;-57
2021/03/06 13:02:04;;;;;;;4.57;3.75;;;;;;;;;;5023479;28;20463;-57
2021/03/06 13:04:57;;;;;;;;;;;;;;;;;;;;;
2021/03/06 13:07:35;;;;;;;5.72;2.88;;;;;;;;;;5036399;28;20465;-54
2021/03/06 13:10:17;;;;;;;3.25;2.20;;;;;;;;;;5036191;28;20426;-58
2021/03/06 13:13:07;;;;;;;;;;;;;;;;;;;;;
2021/03/06 13:15:52;;;;;;;4.70;2.75;;;;;;;;;;5036545;28;20029;-54
2021/03/06 13:18:47;;;;;;;3.80;2.67;;;;;;;;;;5036606;28;20022;-56
2021/03/06 13:30:40;;;;;;;2.88;2.08;;;;;;;;;;5036825;28;20041;-56
2021/03/06 13:33:15;;;;;;;2.95;2.00;;;;;;;;;;5018059;28;20463;-56
2021/03/06 13:35:59;;;;;;;2.50;1.92;;;;;;;;;;5017860;28;20083;-54
2021/03/06 13:44:39;;;;;;;4.43;2.80;;;;;;;;;;5036183;28;20093;-56
2021/03/06 13:56:30;;;;;;;3.72;2.10;;;;;;;;;;5001247;28;20029;-58
2021/03/06 14:02:19;;;;;;;3.03;2.30;;;;;;;;;;5010949;28;20040;-57
2021/03/06 14:04:57;;;;;;;5.35;2.28;;;;;;;;;;5034656;28;20030;-57
2021/03/06 14:07:44;;;;;;;3.28;2.22;;;;;;;;;;5035106;28;20048;-54
2021/03/06 14:10:42;;;;;;;2.53;1.83;;;;;;;;;;5035826;28;20032;-58
2021/03/06 14:13:27;;;;;;;7.80;2.50;;;;;;;;;;5008870;28;20400;-56
2021/03/06 14:16:23;;;;;;;3.15;2.03;;;;;;;;;;5035439;28;20080;-54
2021/03/06 14:18:55;;;;;;;4.55;2.63;;;;;;;;;;5035361;28;20200;-52
2021/03/06 14:24:26;;;;;;;3.47;2.10;;;;;;;;;;5036484;28;20128;-56
2021/03/06 14:27:00;;;;;;;2.58;1.63;;;;;;;;;;5017686;28;20037;-56
2021/03/06 14:29:44;;;;;;;3.13;1.90;;;;;;;;;;5035427;28;20032;-55
2021/03/06 14:32:11;;;;;;;1.60;1.15;;;;;;;;;;5018152;28;20472;-56
2021/03/06 14:35:03;;;;;;;6.55;1.85;;;;;;;;;;5035623;28;20029;-57
2021/03/06 14:38:01;;;;;;;3.15;1.90;;;;;;;;;;5035962;28;20049;-57
2021/03/06 14:43:34;;;;;;;4.65;2.10;;;;;;;;;;5032220;28;20041;-58
2021/03/06 14:46:16;;;;;;;3.08;1.63;;;;;;;;;;5035221;28;20030;-56
2021/03/06 14:48:55;;;;;;;8.38;2.38;;;;;;;;;;5017952;28;20032;-56
2021/03/06 14:51:34;;;;;;;4.78;2.60;;;;;;;;;;5035703;28;20112;-57
2021/03/06 14:54:07;;;;;;;8.02;2.40;;;;;;;;;;5035731;28;20026;-57
2021/03/06 14:56:33;;;;;;;2.58;2.17;;;;;;;;;;5034402;28;20091;-54
2021/03/06 14:59:22;;;;;;;;;;;;;;;;;;;;;
2021/03/06 15:01:52;;;;;;;2.85;2.22;;;;;;;;;;5012176;28;20531;-56
2021/03/06 15:04:32;;;;;;;4.47;1.83;;;;;;;;;;5015465;28;20157;-57
2021/03/06 15:07:14;;;;;;;3.13;1.95;;;;;;;;;;4996036;28;20061;-57
2021/03/06 15:15:40;;;;;;;4.03;1.85;;;;;;;;;;4997329;28;20153;-56
2021/03/06 15:18:15;;;;;;;3.78;2.08;;;;;;;;;;5013165;28;20524;-56
2021/03/06 15:20:51;;;;;;;3.17;2.20;;;;;;;;;;5013774;28;20026;-56
2021/03/06 15:23:20;;;;;;;2.72;1.75;;;;;;;;;;5014459;28;20085;-58
2021/03/06 15:26:17;;;;;;;2.67;1.95;;;;;;;;;;5013611;28;20045;-56
2021/03/06 15:32:03;;;;;;;4.28;2.28;;;;;;;;;;5010179;28;20077;-56
2021/03/06 15:35:16;;;;;;;3.35;1.67;;;;;;;;;;4996607;28;20042;-55
2021/03/06 15:37:46;;;;;;;2.85;1.90;;;;;;;;;;4999075;28;20038;-54
2021/03/06 15:40:22;;;;;;;2.85;1.60;;;;;;;;;;5015171;28;20157;-57
2021/03/06 15:42:48;;;;;;;2.78;2.10;;;;;;;;;;5013602;28;20121;-57
2021/03/06 15:45:32;;;;;;;2.53;1.67;;;;;;;;;;5014027;28;20407;-57
2021/03/06 15:48:01;;;;;;;3.47;2.10;;;;;;;;;;4996420;28;20124;-58
2021/03/06 15:53:55;;;;;;;4.38;2.55;;;;;;;;;;5003653;28;20042;-56
2021/03/06 15:56:42;;;;;;;2.72;1.75;;;;;;;;;;5013589;28;20420;-57
2021/03/06 15:59:26;;;;;;;4.95;2.67;;;;;;;;;;5034253;28;20088;-58
2021/03/06 16:02:15;;;;;;;3.25;2.35;;;;;;;;;;5033877;28;20022;-58
2021/03/06 16:05:07;;;;;;;3.45;2.38;;;;;;;;;;5032616;28;20068;-57
2021/03/06 16:07:55;;;;;;;2.67;1.73;;;;;;;;;;5020556;28;20037;-58
2021/03/06 16:10:22;;;;;;;3.90;2.50;;;;;;;;;;5034696;28;20026;-58
2021/03/06 16:13:01;;;;;;;3.08;2.05;;;;;;;;;;4991815;28;20092;-57
2021/03/06 16:15:40;;;;;;;3.75;2.22;;;;;;;;;;4976052;28;20038;-58
2021/03/06 16:21:42;;;;;;;;;;;;;;;;;;;;;
2021/03/06 16:24:28;;;;;;;5.47;2.65;;;;;;;;;;4991764;28;20042;-56
2021/03/06 16:27:02;;;;;;;5.45;2.38;;;;;;;;;;4995547;28;20034;-57
2021/03/06 16:30:04;;;;;;;5.53;3.25;;;;;;;;;;4995962;28;20038;-55
2021/03/06 16:32:53;;;;;;;2.60;1.80;;;;;;;;;;4995517;28;20026;-57
2021/03/06 16:35:36;;;;;;;2.60;1.95;;;;;;;;;;4995457;28;20038;-58
2021/03/06 16:38:26;;;;;;;3.72;1.65;;;;;;;;;;4979146;28;20117;-59
2021/03/06 16:43:54;;;;;;;4.68;3.08;;;;;;;;;;4988006;28;20413;-54
2021/03/06 16:46:28;;;;;;;3.03;2.05;;;;;;;;;;4995653;28;20121;-57
2021/03/06 16:48:58;;;;;;;2.85;2.10;;;;;;;;;;4979106;28;20097;-54
2021/03/06 16:54:41;;;;;;;;;;;;;;;;;;;;;
2021/03/06 16:57:20;;;;;;;3.83;1.92;;;;;;;;;;5033263;28;20132;-56
2021/03/06 17:00:04;;;;;;;3.50;2.45;;;;;;;;;;5036950;28;20052;-56
2021/03/06 17:02:52;;;;;;;4.10;2.55;;;;;;;;;;5037296;28;20030;-55
2021/03/06 17:05:50;;;;;;;4.03;2.67;;;;;;;;;;5018827;28;20065;-55
2021/03/06 17:11:04;;;;;;;5.68;2.65;;;;;;;;;;5037440;28;20096;-54
2021/03/06 17:13:40;;;;;;;3.63;2.03;;;;;;;;;;5017918;28;20096;-56
2021/03/06 17:16:21;;;;;;;3.60;2.40;;;;;;;;;;5017308;28;20356;-55
2021/03/06 17:19:01;;;;;;;3.47;2.35;;;;;;;;;;5037268;28;20036;-55
2021/03/06 17:21:34;;;;;;;6.55;2.92;;;;;;;;;;5004058;28;20109;-57
2021/03/06 17:24:16;;;;;;;4.50;2.70;;;;;;;;;;5018032;28;20033;-54
2021/03/06 17:26:43;;;;;;;3.23;2.60;;;;;;;;;;5036818;28;20033;-53
2021/03/06 17:29:15;;;;;;;3.30;2.10;;;;;;;;;;5018580;28;20040;-53
2021/03/06 17:31:52;;;;;;;4.27;2.23;;;;;;;;;;5003037;28;20033;-55
2021/03/06 17:34:35;;;;;;;4.00;2.60;;;;;;;;;;5017808;28;20121;-56
2021/03/06 17:37:04;;;;;;;3.10;2.20;;;;;;;;;;5034504;28;20523;-57
2021/03/06 17:39:43;;;;;;;3.77;2.90;;;;;;;;;;5036149;28;20036;-56
2021/03/06 17:42:30;;;;;;;6.03;2.40;;;;;;;;;;5036660;28;20029;-55
2021/03/06 17:45:04;;;;;;;4.27;3.13;;;;;;;;;;5036547;28;20053;-56
2021/03/06 17:47:32;;;;;;;2.90;2.40;;;;;;;;;;5035921;28;20033;-56
2021/03/06 17:50:04;;;;;;;7.03;3.20;;;;;;;;;;5035227;28;20025;-55
2021/03/06 17:52:48;;;;;;;3.58;2.78;;;;;;;;;;5015861;28;20056;-57
2021/03/06 17:55:32;;;;;;;6.07;4.13;;;;;;;;;;5035610;28;20021;-57
2021/03/06 17:58:03;;;;;;;4.60;3.60;;;;;;;;;;5002707;28;20349;-56
2021/03/06 18:00:43;;;;;;;7.07;5.28;;;;;;;;;;5035398;28;20411;-56
2021/03/06 18:03:16;;;;;;;9.80;6.57;;;;;;;;;;5000347;28;20435;-55
2021/03/06 18:05:42;;;;;;;10.57;7.50;;;;;;;;;;5017940;28;20695;-56
2021/03/06 18:08:37;;;;;;;;;;;;;;;;;;;;;
2021/03/06 18:11:09;;;;;;;6.70;5.77;;;;;;;;;;5018242;28;20035;-56
2021/03/06 18:13:44;;;;;;;4.97;4.33;;;;;;;;;;5014573;28;20092;-57
2021/03/06 18:16:28;;;;;;;8.27;4.47;;;;;;;;;;5035524;28;20054;-56
2021/03/06 18:19:10;;;;;;;6.30;3.90;;;;;;;;;;5034889;28;20025;-55
2021/03/06 18:21:54;;;;;;;5.73;3.43;;;;;;;;;;5034900;28;20028;-56
2021/03/06 18:24:22;;;;;;;4.90;3.93;;;;;;;;;;5034743;28;20455;-54
2021/03/06 18:27:08;;;;;;;6.23;3.17;;;;;;;;;;5035395;28;20055;-55
2021/03/06 18:29:35;;;;;;;5.63;3.13;;;;;;;;;;5035622;28;20025;-55
2021/03/06 18:32:29;;;;;;;;;;;;;;;;;;;;;
2021/03/06 18:38:12;;;;;;;12.50;6.57;;;;;;;;;;5035346;28;20053;-54
2021/03/06 18:40:47;;;;;;;7.50;4.00;;;;;;;;;;5016454;28;20044;-55
2021/03/06 18:43:20;;;;;;;7.33;4.40;;;;;;;;;;5035118;28;20447;-52
2021/03/06 18:45:51;;;;;;;12.00;5.73;;;;;;;;;;5016666;28;20494;-56
2021/03/06 18:48:36;;;;;;;;;;;;;;;;;;;;;
2021/03/06 18:51:21;;;;;;;7.50;5.67;;;;;;;;;;5035260;28;20035;-56
2021/03/06 18:54:04;;;;;;;8.83;5.20;;;;;;;;;;5034504;28;20030;-53
2021/03/06 19:02:40;;;;;;;9.23;6.23;;;;;;;;;;5015021;28;20495;-56
2021/03/06 19:05:28;;;;;;;8.70;6.00;;;;;;;;;;4997738;28;20465;-53
2021/03/06 19:08:17;;;;;;;13.13;7.07;;;;;;;;;;5014639;28;20544;-56
2021/03/06 19:10:46;;;;;;;10.83;5.70;;;;;;;;;;5013903;28;20365;-54
2021/03/06 19:13:24;;;;;;;12.80;6.97;;;;;;;;;;5015044;28;20156;-54
2021/03/06 19:16:07;;;;;;;;;;;;;;;;;;;;;
2021/03/06 19:18:53;;;;;;;9.87;6.37;;;;;;;;;;5012616;28;20041;-57
2021/03/06 19:21:28;;;;;;;8.60;5.87;;;;;;;;;;5014557;28;20030;-56
2021/03/06 19:24:03;;;;;;;12.67;7.53;;;;;;;;;;5014333;28;20103;-54
2021/03/06 19:26:34;;;;;;;10.80;7.53;;;;;;;;;;5014618;28;20026;-56
2021/03/06 19:32:20;;;;;;;11.67;6.43;;;;;;;;;;5012094;28;20359;-56
2021/03/06 19:35:07;;;;;;;9.53;5.57;;;;;;;;;;5014232;28;20384;-56
2021/03/06 19:37:46;;;;;;;8.93;5.20;;;;;;;;;;5013884;28;20045;-56
2021/03/06 19:40:24;;;;;;;5.57;4.83;;;;;;;;;;4996961;28;20037;-57
2021/03/06 19:43:07;;;;;;;;;;;;;;;;;;;;;
2021/03/06 19:45:56;;;;;;;9.03;6.57;;;;;;;;;;5015145;28;20440;-56
2021/03/06 19:48:39;;;;;;;8.77;6.83;;;;;;;;;;5014675;28;20480;-55
2021/03/06 19:51:27;;;;;;;11.73;6.23;;;;;;;;;;4986991;28;20435;-56
2021/03/06 19:54:01;;;;;;;6.20;5.20;;;;;;;;;;4984862;28;20046;-55
2021/03/06 19:59:44;;;;;;;9.43;5.10;;;;;;;;;;5036668;28;20087;-56
2021/03/06 20:02:24;;;;;;;;;;;;;;;;;;;;;
2021/03/06 20:05:05;;;;;;;7.17;5.57;;;;;;;;;;5034439;28;20045;-55
2021/03/06 20:07:44;;;;;;;25.53;19.07;;;;;;;;;;5038283;28;20018;-56
2021/03/06 20:10:32;;;;;;;13.50;9.43;;;;;;;;;;5021420;28;20035;-56
2021/03/06 20:13:08;;;;;;;10.97;5.83;;;;;;;;;;5037952;28;20486;-57
2021/03/06 20:15:43;;;;;;;6.73;4.97;;;;;;;;;;5018254;28;20057;-55
2021/03/06 20:18:44;;;;;;;7.03;4.87;;;;;;;;;;5019363;28;20112;-54
2021/03/06 20:24:16;;;;;;;5.70;3.97;;;;;;;;;;5005995;28;20033;-55
2021/03/06 20:29:57;;;;;;;5.60;3.87;;;;;;;;;;5036895;28;20029;-52
2021/03/06 20:33:11;;;;;;;5.55;3.90;;;;;;;;;;5037554;28;20101;-57
2021/03/06 20:35:44;;;;;;;3.80;3.10;;;;;;;;;;5028139;28;20040;-56
2021/03/06 20:38:17;;;;;;;5.70;3.37;;;;;;;;;;5019120;28;20535;-56
2021/03/06 20:41:23;;;;;;;4.13;3.53;;;;;;;;;;5019096;28;20509;-56
2021/03/06 20:44:24;;;;;;;3.33;2.57;;;;;;;;;;5019676;28;20044;-56
2021/03/06 20:47:13;;;;;;;3.57;2.50;;;;;;;;;;5037671;28;20116;-54
2021/03/06 20:52:55;;;;;;;5.03;3.73;;;;;;;;;;5036969;28;20456;-56